sensor_id;sensor_type;location;lat;lon;timestamp;pressure;altitude;pressure_sealevel;temperature;humidity
7026;BME280;3554;42.132;24.786;2023-02-04T00:01:20;99314.59;;;5.44;100.00
7026;BME280;3554;42.132;24.786;2023-02-04T00:03:47;99309.22;;;5.53;100.00
7026;BME280;3554;42.132;24.786;2023-02-04T00:06:15;99308.47;;;5.46;100.00
7026;BME280;3554;42.132;24.786;2023-02-04T00:08:42;99304.84;;;5.55;100.00
7026;BME280;3554;42.132;24.786;2023-02-04T00:11:08;99302.28;;;5.54;100.00
7026;BME280;3554;42.132;24.786;2023-02-04T00:13:35;99296.25;;;5.53;100.00
7026;BME280;3554;42.132;24.786;2023-02-04T00:16:02;99290.53;;;5.36;100.00
7026;BME280;3554;42.132;24.786;2023-02-04T00:18:29;99291.09;;;5.50;100.00
7026;BME280;3554;42.132;24.786;2023-02-04T00:20:56;99281.63;;;5.49;100.00
7026;BME280;3554;42.132;24.786;2023-02-04T00:23:24;99284.97;;;5.54;100.00
7026;BME280;3554;42.132;24.786;2023-02-04T00:25:51;99285.22;;;5.42;100.00
7026;BME280;3554;42.132;24.786;2023-02-04T00:28:18;99278.28;;;5.44;100.00
7026;BME280;3554;42.132;24.786;2023-02-04T00:30:44;99285.38;;;5.34;100.00
7026;BME280;3554;42.132;24.786;2023-02-04T00:33:12;99264.22;;;5.13;100.00
7026;BME280;3554;42.132;24.786;2023-02-04T00:35:39;99274.31;;;5.26;100.00
7026;BME280;3554;42.132;24.786;2023-02-04T00:38:06;99274.28;;;5.28;100.00
7026;BME280;3554;42.132;24.786;2023-02-04T00:40:34;99266.34;;;5.34;100.00
7026;BME280;3554;42.132;24.786;2023-02-04T00:43:01;99270.88;;;5.26;100.00
7026;BME280;3554;42.132;24.786;2023-02-04T00:45:27;99268.84;;;5.40;100.00
7026;BME280;3554;42.132;24.786;2023-02-04T00:47:54;99266.31;;;5.37;100.00
7026;BME280;3554;42.132;24.786;2023-02-04T00:50:21;99269.00;;;5.32;100.00
7026;BME280;3554;42.132;24.786;2023-02-04T00:52:48;99266.50;;;5.28;100.00
7026;BME280;3554;42.132;24.786;2023-02-04T00:55:15;99260.41;;;5.29;100.00
7026;BME280;3554;42.132;24.786;2023-02-04T00:57:44;99245.03;;;5.20;100.00
7026;BME280;3554;42.132;24.786;2023-02-04T01:00:13;99263.75;;;5.34;100.00
7026;BME280;3554;42.132;24.786;2023-02-04T01:02:40;99254.47;;;5.24;100.00
7026;BME280;3554;42.132;24.786;2023-02-04T01:05:07;99232.88;;;5.23;100.00
7026;BME280;3554;42.132;24.786;2023-02-04T01:07:34;99245.00;;;5.23;100.00
7026;BME280;3554;42.132;24.786;2023-02-04T01:10:01;99233.88;;;5.18;100.00
7026;BME280;3554;42.132;24.786;2023-02-04T01:12:28;99231.13;;;5.24;100.00
7026;BME280;3554;42.132;24.786;2023-02-04T01:14:56;99207.03;;;5.19;100.00
7026;BME280;3554;42.132;24.786;2023-02-04T01:17:23;99226.66;;;5.32;100.00
7026;BME280;3554;42.132;24.786;2023-02-04T01:19:50;99215.28;;;5.36;100.00
7026;BME280;3554;42.132;24.786;2023-02-04T01:22:17;99207.94;;;5.18;100.00
7026;BME280;3554;42.132;24.786;2023-02-04T01:24:43;99192.78;;;5.36;100.00
7026;BME280;3554;42.132;24.786;2023-02-04T01:27:10;99143.13;;;5.15;100.00
7026;BME280;3554;42.132;24.786;2023-02-04T01:29:37;99187.97;;;5.58;100.00
7026;BME280;3554;42.132;24.786;2023-02-04T01:32:05;99171.97;;;5.39;100.00
7026;BME280;3554;42.132;24.786;2023-02-04T01:34:32;99176.44;;;5.33;100.00
7026;BME280;3554;42.132;24.786;2023-02-04T01:36:59;99161.63;;;5.38;100.00
7026;BME280;3554;42.132;24.786;2023-02-04T01:39:25;99146.78;;;5.06;100.00
7026;BME280;3554;42.132;24.786;2023-02-04T01:41:52;99127.38;;;4.86;100.00
7026;BME280;3554;42.132;24.786;2023-02-04T01:44:19;99131.34;;;5.00;100.00
7026;BME280;3554;42.132;24.786;2023-02-04T01:46:46;99129.47;;;5.08;100.00
7026;BME280;3554;42.132;24.786;2023-02-04T01:49:14;99124.72;;;4.89;100.00
7026;BME280;3554;42.132;24.786;2023-02-04T01:51:41;99126.72;;;4.76;100.00
7026;BME280;3554;42.132;24.786;2023-02-04T01:54:09;99124.72;;;4.89;100.00
7026;BME280;3554;42.132;24.786;2023-02-04T01:56:38;99116.81;;;4.93;100.00
7026;BME280;3554;42.132;24.786;2023-02-04T01:59:10;99122.97;;;4.89;100.00
7026;BME280;3554;42.132;24.786;2023-02-04T02:01:39;99115.13;;;4.92;100.00
7026;BME280;3554;42.132;24.786;2023-02-04T02:04:07;99049.22;;;4.64;100.00
7026;BME280;3554;42.132;24.786;2023-02-04T02:06:38;99109.81;;;4.98;100.00
7026;BME280;3554;42.132;24.786;2023-02-04T02:09:06;99123.66;;;4.97;100.00
7026;BME280;3554;42.132;24.786;2023-02-04T02:11:33;99097.72;;;4.59;100.00
7026;BME280;3554;42.132;24.786;2023-02-04T02:13:59;99106.78;;;4.78;100.00
7026;BME280;3554;42.132;24.786;2023-02-04T02:16:26;99105.22;;;4.71;100.00
7026;BME280;3554;42.132;24.786;2023-02-04T02:18:53;99084.34;;;4.79;100.00
7026;BME280;3554;42.132;24.786;2023-02-04T02:21:30;99097.47;;;5.08;100.00
7026;BME280;3554;42.132;24.786;2023-02-04T02:23:59;99089.69;;;5.08;100.00
7026;BME280;3554;42.132;24.786;2023-02-04T02:26:26;99074.31;;;5.00;100.00
7026;BME280;3554;42.132;24.786;2023-02-04T02:28:53;99096.41;;;5.16;100.00
7026;BME280;3554;42.132;24.786;2023-02-04T02:31:21;99063.19;;;4.95;100.00
7026;BME280;3554;42.132;24.786;2023-02-04T02:33:48;99084.47;;;5.09;100.00
7026;BME280;3554;42.132;24.786;2023-02-04T02:36:15;99089.53;;;5.15;100.00
7026;BME280;3554;42.132;24.786;2023-02-04T02:38:42;99090.44;;;5.13;100.00
7026;BME280;3554;42.132;24.786;2023-02-04T02:41:10;99083.22;;;4.89;100.00
7026;BME280;3554;42.132;24.786;2023-02-04T02:43:37;99067.53;;;4.95;100.00
7026;BME280;3554;42.132;24.786;2023-02-04T02:46:04;99061.25;;;4.25;100.00
7026;BME280;3554;42.132;24.786;2023-02-04T02:48:32;99057.56;;;4.38;100.00
7026;BME280;3554;42.132;24.786;2023-02-04T02:50:59;99026.00;;;4.18;100.00
7026;BME280;3554;42.132;24.786;2023-02-04T02:53:25;99046.31;;;4.40;100.00
7026;BME280;3554;42.132;24.786;2023-02-04T02:55:52;99050.91;;;4.25;100.00
7026;BME280;3554;42.132;24.786;2023-02-04T02:58:23;99044.94;;;4.23;100.00
7026;BME280;3554;42.132;24.786;2023-02-04T03:00:52;99046.03;;;4.52;100.00
7026;BME280;3554;42.132;24.786;2023-02-04T03:03:21;99036.91;;;4.74;100.00
7026;BME280;3554;42.132;24.786;2023-02-04T03:05:53;99031.41;;;4.87;100.00
7026;BME280;3554;42.132;24.786;2023-02-04T03:08:21;99026.97;;;4.54;100.00
7026;BME280;3554;42.132;24.786;2023-02-04T03:10:48;99021.03;;;4.87;100.00
7026;BME280;3554;42.132;24.786;2023-02-04T03:13:16;99019.28;;;4.88;100.00
7026;BME280;3554;42.132;24.786;2023-02-04T03:15:46;99019.44;;;4.82;100.00
7026;BME280;3554;42.132;24.786;2023-02-04T03:18:15;99016.06;;;5.13;100.00
7026;BME280;3554;42.132;24.786;2023-02-04T03:20:44;99013.25;;;5.22;100.00
7026;BME280;3554;42.132;24.786;2023-02-04T03:23:11;99005.56;;;5.19;100.00
7026;BME280;3554;42.132;24.786;2023-02-04T03:25:38;99004.34;;;5.32;100.00
7026;BME280;3554;42.132;24.786;2023-02-04T03:28:05;99008.69;;;5.32;100.00
7026;BME280;3554;42.132;24.786;2023-02-04T03:30:32;99005.88;;;5.41;100.00
7026;BME280;3554;42.132;24.786;2023-02-04T03:33:00;99007.78;;;5.33;100.00
7026;BME280;3554;42.132;24.786;2023-02-04T03:35:27;99000.06;;;5.31;100.00
7026;BME280;3554;42.132;24.786;2023-02-04T03:37:54;99005.09;;;5.37;100.00
7026;BME280;3554;42.132;24.786;2023-02-04T03:40:20;99010.47;;;5.30;100.00
7026;BME280;3554;42.132;24.786;2023-02-04T03:42:47;99012.06;;;5.34;100.00
7026;BME280;3554;42.132;24.786;2023-02-04T03:45:14;99002.56;;;5.34;100.00
7026;BME280;3554;42.132;24.786;2023-02-04T03:47:41;98995.09;;;5.22;100.00
7026;BME280;3554;42.132;24.786;2023-02-04T03:50:09;98989.03;;;5.22;100.00
7026;BME280;3554;42.132;24.786;2023-02-04T03:52:38;98992.91;;;5.06;100.00
7026;BME280;3554;42.132;24.786;2023-02-04T03:55:05;98985.03;;;4.75;100.00
7026;BME280;3554;42.132;24.786;2023-02-04T03:57:32;98977.16;;;4.80;100.00
7026;BME280;3554;42.132;24.786;2023-02-04T03:59:59;98967.06;;;4.68;100.00
7026;BME280;3554;42.132;24.786;2023-02-04T04:02:26;98963.53;;;4.70;100.00
7026;BME280;3554;42.132;24.786;2023-02-04T04:04:52;98960.13;;;4.68;100.00
7026;BME280;3554;42.132;24.786;2023-02-04T04:07:21;98955.84;;;4.67;100.00
7026;BME280;3554;42.132;24.786;2023-02-04T04:09:47;98943.22;;;4.54;100.00
7026;BME280;3554;42.132;24.786;2023-02-04T04:12:14;98941.97;;;4.70;100.00
7026;BME280;3554;42.132;24.786;2023-02-04T04:14:41;98935.84;;;4.37;100.00
7026;BME280;3554;42.132;24.786;2023-02-04T04:17:08;98937.13;;;4.55;100.00
7026;BME280;3554;42.132;24.786;2023-02-04T04:19:34;98941.28;;;4.62;100.00
7026;BME280;3554;42.132;24.786;2023-02-04T04:22:01;98933.34;;;4.69;100.00
7026;BME280;3554;42.132;24.786;2023-02-04T04:24:29;98924.69;;;4.69;100.00
7026;BME280;3554;42.132;24.786;2023-02-04T04:26:56;98925.38;;;4.77;100.00
7026;BME280;3554;42.132;24.786;2023-02-04T04:29:23;98936.88;;;4.65;100.00
7026;BME280;3554;42.132;24.786;2023-02-04T04:31:50;98939.31;;;4.73;100.00
7026;BME280;3554;42.132;24.786;2023-02-04T04:34:16;98927.97;;;4.77;100.00
7026;BME280;3554;42.132;24.786;2023-02-04T04:36:43;98937.34;;;4.81;100.00
7026;BME280;3554;42.132;24.786;2023-02-04T04:39:10;98929.63;;;4.79;100.00
7026;BME280;3554;42.132;24.786;2023-02-04T04:41:38;98945.34;;;4.73;100.00
7026;BME280;3554;42.132;24.786;2023-02-04T04:44:05;98919.66;;;4.64;100.00
7026;BME280;3554;42.132;24.786;2023-02-04T04:46:32;98924.00;;;4.62;100.00
7026;BME280;3554;42.132;24.786;2023-02-04T04:48:59;98916.06;;;4.70;100.00
7026;BME280;3554;42.132;24.786;2023-02-04T04:51:25;98909.88;;;4.74;100.00
7026;BME280;3554;42.132;24.786;2023-02-04T04:53:56;98909.53;;;4.54;100.00
7026;BME280;3554;42.132;24.786;2023-02-04T04:56:23;98902.84;;;4.44;100.00
7026;BME280;3554;42.132;24.786;2023-02-04T04:58:51;98907.16;;;4.45;100.00
7026;BME280;3554;42.132;24.786;2023-02-04T05:01:18;98905.41;;;4.08;100.00
7026;BME280;3554;42.132;24.786;2023-02-04T05:03:45;98883.44;;;3.86;100.00
7026;BME280;3554;42.132;24.786;2023-02-04T05:06:12;98905.06;;;4.23;100.00
7026;BME280;3554;42.132;24.786;2023-02-04T05:08:39;98902.50;;;4.22;100.00
7026;BME280;3554;42.132;24.786;2023-02-04T05:11:06;98904.72;;;4.38;100.00
7026;BME280;3554;42.132;24.786;2023-02-04T05:13:32;98905.31;;;4.50;100.00
7026;BME280;3554;42.132;24.786;2023-02-04T05:16:01;98908.53;;;4.59;100.00
7026;BME280;3554;42.132;24.786;2023-02-04T05:18:27;98906.81;;;4.58;100.00
7026;BME280;3554;42.132;24.786;2023-02-04T05:20:54;98903.09;;;4.68;100.00
7026;BME280;3554;42.132;24.786;2023-02-04T05:23:21;98904.69;;;4.75;100.00
7026;BME280;3554;42.132;24.786;2023-02-04T05:25:48;98898.69;;;4.72;100.00
7026;BME280;3554;42.132;24.786;2023-02-04T05:28:14;98892.00;;;4.63;100.00
7026;BME280;3554;42.132;24.786;2023-02-04T05:30:41;98888.47;;;4.67;100.00
7026;BME280;3554;42.132;24.786;2023-02-04T05:33:09;98891.75;;;4.74;100.00
7026;BME280;3554;42.132;24.786;2023-02-04T05:35:36;98894.41;;;4.71;100.00
7026;BME280;3554;42.132;24.786;2023-02-04T05:38:03;98897.22;;;4.62;100.00
7026;BME280;3554;42.132;24.786;2023-02-04T05:40:30;98892.81;;;4.65;100.00
7026;BME280;3554;42.132;24.786;2023-02-04T05:42:56;98890.28;;;4.64;100.00
7026;BME280;3554;42.132;24.786;2023-02-04T05:45:23;98894.66;;;4.62;100.00
7026;BME280;3554;42.132;24.786;2023-02-04T05:47:50;98897.19;;;4.63;100.00
7026;BME280;3554;42.132;24.786;2023-02-04T05:50:18;98898.81;;;4.67;100.00
7026;BME280;3554;42.132;24.786;2023-02-04T05:52:45;98897.47;;;4.86;100.00
7026;BME280;3554;42.132;24.786;2023-02-04T05:55:12;98907.00;;;4.86;100.00
7026;BME280;3554;42.132;24.786;2023-02-04T05:57:38;98907.69;;;4.92;100.00
7026;BME280;3554;42.132;24.786;2023-02-04T06:00:06;98907.94;;;4.83;100.00
7026;BME280;3554;42.132;24.786;2023-02-04T06:02:34;98907.75;;;4.91;100.00
7026;BME280;3554;42.132;24.786;2023-02-04T06:05:01;98913.75;;;4.93;100.00
7026;BME280;3554;42.132;24.786;2023-02-04T06:07:29;98916.09;;;5.02;100.00
7026;BME280;3554;42.132;24.786;2023-02-04T06:09:56;98912.47;;;5.09;100.00
7026;BME280;3554;42.132;24.786;2023-02-04T06:12:23;98921.38;;;4.97;100.00
7026;BME280;3554;42.132;24.786;2023-02-04T06:14:50;98915.13;;;5.06;100.00
7026;BME280;3554;42.132;24.786;2023-02-04T06:17:17;98919.19;;;5.16;100.00
7026;BME280;3554;42.132;24.786;2023-02-04T06:19:43;98916.41;;;5.22;100.00
7026;BME280;3554;42.132;24.786;2023-02-04T06:22:10;98912.59;;;5.35;100.00
7026;BME280;3554;42.132;24.786;2023-02-04T06:24:38;98910.78;;;5.06;100.00
7026;BME280;3554;42.132;24.786;2023-02-04T06:27:05;98905.03;;;5.27;100.00
7026;BME280;3554;42.132;24.786;2023-02-04T06:29:32;98911.13;;;5.26;100.00
7026;BME280;3554;42.132;24.786;2023-02-04T06:31:58;98929.72;;;5.42;100.00
7026;BME280;3554;42.132;24.786;2023-02-04T06:34:25;98915.00;;;5.42;100.00
7026;BME280;3554;42.132;24.786;2023-02-04T06:36:52;98933.03;;;5.47;100.00
7026;BME280;3554;42.132;24.786;2023-02-04T06:39:19;98922.84;;;5.39;100.00
7026;BME280;3554;42.132;24.786;2023-02-04T06:41:47;98930.13;;;5.58;100.00
7026;BME280;3554;42.132;24.786;2023-02-04T06:44:14;98929.25;;;5.59;100.00
7026;BME280;3554;42.132;24.786;2023-02-04T06:46:41;98915.25;;;5.33;100.00
7026;BME280;3554;42.132;24.786;2023-02-04T06:49:08;98920.44;;;5.33;100.00
7026;BME280;3554;42.132;24.786;2023-02-04T06:51:34;98928.41;;;5.26;100.00
7026;BME280;3554;42.132;24.786;2023-02-04T06:54:01;98928.25;;;5.00;100.00
7026;BME280;3554;42.132;24.786;2023-02-04T06:56:28;98938.84;;;5.24;100.00
7026;BME280;3554;42.132;24.786;2023-02-04T06:58:56;98920.47;;;5.32;100.00
7026;BME280;3554;42.132;24.786;2023-02-04T07:01:23;98934.34;;;5.31;100.00
7026;BME280;3554;42.132;24.786;2023-02-04T07:03:50;98933.41;;;5.33;100.00
7026;BME280;3554;42.132;24.786;2023-02-04T07:06:16;98924.66;;;5.37;100.00
7026;BME280;3554;42.132;24.786;2023-02-04T07:08:43;98937.34;;;5.48;100.00
7026;BME280;3554;42.132;24.786;2023-02-04T07:11:11;98945.66;;;5.59;100.00
7026;BME280;3554;42.132;24.786;2023-02-04T07:13:38;98950.13;;;5.54;100.00
7026;BME280;3554;42.132;24.786;2023-02-04T07:16:07;98950.13;;;5.54;100.00
7026;BME280;3554;42.132;24.786;2023-02-04T07:18:33;98940.56;;;5.24;100.00
7026;BME280;3554;42.132;24.786;2023-02-04T07:21:00;98944.38;;;5.43;100.00
7026;BME280;3554;42.132;24.786;2023-02-04T07:23:27;98928.19;;;5.35;100.00
7026;BME280;3554;42.132;24.786;2023-02-04T07:25:54;98938.94;;;5.52;100.00
7026;BME280;3554;42.132;24.786;2023-02-04T07:28:22;98868.28;;;5.12;100.00
7026;BME280;3554;42.132;24.786;2023-02-04T07:30:50;98942.00;;;5.66;100.00
7026;BME280;3554;42.132;24.786;2023-02-04T07:33:19;98935.31;;;5.58;100.00
7026;BME280;3554;42.132;24.786;2023-02-04T07:35:49;98940.16;;;5.70;100.00
7026;BME280;3554;42.132;24.786;2023-02-04T07:38:16;98938.38;;;5.72;100.00
7026;BME280;3554;42.132;24.786;2023-02-04T07:40:42;98913.44;;;5.68;100.00
7026;BME280;3554;42.132;24.786;2023-02-04T07:43:09;98932.16;;;5.77;100.00
7026;BME280;3554;42.132;24.786;2023-02-04T07:45:36;98925.19;;;5.79;100.00
7026;BME280;3554;42.132;24.786;2023-02-04T07:48:03;98911.34;;;5.80;100.00
7026;BME280;3554;42.132;24.786;2023-02-04T07:50:32;98908.56;;;5.86;100.00
7026;BME280;3554;42.132;24.786;2023-02-04T07:52:59;98916.31;;;6.17;100.00
7026;BME280;3554;42.132;24.786;2023-02-04T07:55:26;98895.50;;;6.44;100.00
7026;BME280;3554;42.132;24.786;2023-02-04T07:57:53;98873.25;;;6.64;100.00
7026;BME280;3554;42.132;24.786;2023-02-04T08:00:20;98883.25;;;7.00;100.00
7026;BME280;3554;42.132;24.786;2023-02-04T08:02:47;98885.97;;;7.22;100.00
7026;BME280;3554;42.132;24.786;2023-02-04T08:05:14;98884.47;;;7.39;100.00
7026;BME280;3554;42.132;24.786;2023-02-04T08:07:42;98863.66;;;7.39;100.00
7026;BME280;3554;42.132;24.786;2023-02-04T08:10:10;98854.38;;;7.55;100.00
7026;BME280;3554;42.132;24.786;2023-02-04T08:12:37;98864.41;;;7.66;100.00
7026;BME280;3554;42.132;24.786;2023-02-04T08:15:04;98869.59;;;7.66;100.00
7026;BME280;3554;42.132;24.786;2023-02-04T08:17:32;98864.34;;;7.68;100.00
7026;BME280;3554;42.132;24.786;2023-02-04T08:19:58;98844.53;;;7.87;100.00
7026;BME280;3554;42.132;24.786;2023-02-04T08:22:25;98810.16;;;7.54;100.00
7026;BME280;3554;42.132;24.786;2023-02-04T08:24:53;98846.00;;;7.94;100.00
7026;BME280;3554;42.132;24.786;2023-02-04T08:27:20;98847.59;;;7.96;100.00
7026;BME280;3554;42.132;24.786;2023-02-04T08:29:47;98834.16;;;8.07;100.00
7026;BME280;3554;42.132;24.786;2023-02-04T08:32:14;98835.53;;;8.17;100.00
7026;BME280;3554;42.132;24.786;2023-02-04T08:34:41;98816.94;;;8.26;100.00
7026;BME280;3554;42.132;24.786;2023-02-04T08:37:08;98815.72;;;8.34;100.00
7026;BME280;3554;42.132;24.786;2023-02-04T08:39:35;98818.25;;;8.36;100.00
7026;BME280;3554;42.132;24.786;2023-02-04T08:42:04;98825.63;;;8.46;100.00
7026;BME280;3554;42.132;24.786;2023-02-04T08:44:31;98812.28;;;8.54;100.00
7026;BME280;3554;42.132;24.786;2023-02-04T08:46:57;98806.34;;;8.71;100.00
7026;BME280;3554;42.132;24.786;2023-02-04T08:49:24;98804.53;;;8.73;100.00
7026;BME280;3554;42.132;24.786;2023-02-04T08:51:51;98799.22;;;8.76;100.00
7026;BME280;3554;42.132;24.786;2023-02-04T08:54:18;98824.16;;;9.01;100.00
7026;BME280;3554;42.132;24.786;2023-02-04T08:56:45;98826.84;;;9.20;100.00
7026;BME280;3554;42.132;24.786;2023-02-04T08:59:13;98830.16;;;9.23;100.00
7026;BME280;3554;42.132;24.786;2023-02-04T09:01:39;98838.16;;;9.39;100.00
7026;BME280;3554;42.132;24.786;2023-02-04T09:04:06;98829.63;;;9.35;100.00
7026;BME280;3554;42.132;24.786;2023-02-04T09:06:33;98825.03;;;9.40;100.00
7026;BME280;3554;42.132;24.786;2023-02-04T09:09:00;98834.19;;;9.50;100.00
7026;BME280;3554;42.132;24.786;2023-02-04T09:11:27;98826.19;;;9.53;100.00
7026;BME280;3554;42.132;24.786;2023-02-04T09:13:54;98841.94;;;9.70;100.00
7026;BME280;3554;42.132;24.786;2023-02-04T09:16:23;98842.44;;;9.97;100.00
7026;BME280;3554;42.132;24.786;2023-02-04T09:18:50;98829.03;;;10.23;100.00
7026;BME280;3554;42.132;24.786;2023-02-04T09:21:16;98824.09;;;10.17;100.00
7026;BME280;3554;42.132;24.786;2023-02-04T09:23:43;98812.69;;;10.00;100.00
7026;BME280;3554;42.132;24.786;2023-02-04T09:26:11;98810.78;;;10.03;100.00
7026;BME280;3554;42.132;24.786;2023-02-04T09:28:37;98799.63;;;10.18;100.00
7026;BME280;3554;42.132;24.786;2023-02-04T09:31:04;98806.81;;;10.32;100.00
7026;BME280;3554;42.132;24.786;2023-02-04T09:33:34;98803.72;;;10.24;100.00
7026;BME280;3554;42.132;24.786;2023-02-04T09:36:01;98806.97;;;10.29;100.00
7026;BME280;3554;42.132;24.786;2023-02-04T09:38:28;98803.91;;;10.55;95.98
7026;BME280;3554;42.132;24.786;2023-02-04T09:40:57;98804.00;;;10.53;96.91
7026;BME280;3554;42.132;24.786;2023-02-04T09:43:27;98798.69;;;10.55;95.74
7026;BME280;3554;42.132;24.786;2023-02-04T09:45:55;98773.88;;;10.28;95.84
7026;BME280;3554;42.132;24.786;2023-02-04T09:48:23;98778.06;;;10.13;97.64
7026;BME280;3554;42.132;24.786;2023-02-04T09:50:52;98739.31;;;9.86;97.89
7026;BME280;3554;42.132;24.786;2023-02-04T09:53:28;98779.63;;;9.99;98.98
7026;BME280;3554;42.132;24.786;2023-02-04T09:55:55;98761.44;;;9.79;99.55
7026;BME280;3554;42.132;24.786;2023-02-04T09:58:23;98740.16;;;9.86;100.00
7026;BME280;3554;42.132;24.786;2023-02-04T10:00:57;98754.44;;;9.79;100.00
7026;BME280;3554;42.132;24.786;2023-02-04T10:03:25;98762.41;;;9.76;100.00
7026;BME280;3554;42.132;24.786;2023-02-04T10:05:53;98757.53;;;9.68;100.00
7026;BME280;3554;42.132;24.786;2023-02-04T10:08:25;98769.13;;;9.63;100.00
7026;BME280;3554;42.132;24.786;2023-02-04T10:10:54;98765.81;;;9.59;100.00
7026;BME280;3554;42.132;24.786;2023-02-04T10:13:26;98761.84;;;9.88;100.00
7026;BME280;3554;42.132;24.786;2023-02-04T10:15:56;98761.63;;;10.11;100.00
7026;BME280;3554;42.132;24.786;2023-02-04T10:18:25;98736.66;;;10.23;100.00
7026;BME280;3554;42.132;24.786;2023-02-04T10:20:56;98734.28;;;10.35;100.00
7026;BME280;3554;42.132;24.786;2023-02-04T10:23:26;98753.50;;;10.34;97.34
7026;BME280;3554;42.132;24.786;2023-02-04T10:25:53;98736.16;;;10.15;95.41
7026;BME280;3554;42.132;24.786;2023-02-04T10:28:20;98734.44;;;10.32;96.01
7026;BME280;3554;42.132;24.786;2023-02-04T10:30:46;98748.22;;;10.36;97.22
7026;BME280;3554;42.132;24.786;2023-02-04T10:33:15;98746.19;;;10.41;96.09
7026;BME280;3554;42.132;24.786;2023-02-04T10:35:48;98743.66;;;10.39;96.61
7026;BME280;3554;42.132;24.786;2023-02-04T10:38:17;98735.59;;;10.27;97.60
7026;BME280;3554;42.132;24.786;2023-02-04T10:40:45;98720.19;;;10.21;99.04
7026;BME280;3554;42.132;24.786;2023-02-04T10:43:15;98732.72;;;10.31;99.46
7026;BME280;3554;42.132;24.786;2023-02-04T10:45:54;98720.72;;;10.10;99.08
7026;BME280;3554;42.132;24.786;2023-02-04T10:48:21;98729.75;;;10.03;100.00
7026;BME280;3554;42.132;24.786;2023-02-04T10:50:48;98712.06;;;9.72;100.00
7026;BME280;3554;42.132;24.786;2023-02-04T10:53:18;98704.03;;;9.58;100.00
7026;BME280;3554;42.132;24.786;2023-02-04T10:56:04;98715.47;;;9.56;100.00
7026;BME280;3554;42.132;24.786;2023-02-04T10:58:32;98699.25;;;9.49;100.00
7026;BME280;3554;42.132;24.786;2023-02-04T11:00:59;98703.91;;;9.43;100.00
7026;BME280;3554;42.132;24.786;2023-02-04T11:03:28;98694.69;;;9.36;100.00
7026;BME280;3554;42.132;24.786;2023-02-04T11:05:58;98702.91;;;9.45;100.00
7026;BME280;3554;42.132;24.786;2023-02-04T11:08:29;98690.78;;;9.44;100.00
7026;BME280;3554;42.132;24.786;2023-02-04T11:10:58;98691.75;;;9.42;100.00
7026;BME280;3554;42.132;24.786;2023-02-04T11:13:38;98688.03;;;9.47;100.00
7026;BME280;3554;42.132;24.786;2023-02-04T11:16:22;98665.03;;;9.37;100.00
7026;BME280;3554;42.132;24.786;2023-02-04T11:18:50;98674.69;;;9.35;100.00
7026;BME280;3554;42.132;24.786;2023-02-04T11:21:24;98680.53;;;9.40;100.00
7026;BME280;3554;42.132;24.786;2023-02-04T11:24:05;98672.69;;;9.40;100.00
7026;BME280;3554;42.132;24.786;2023-02-04T11:26:34;98672.94;;;9.35;100.00
7026;BME280;3554;42.132;24.786;2023-02-04T11:29:24;98614.09;;;9.10;100.00
7026;BME280;3554;42.132;24.786;2023-02-04T11:32:01;98653.69;;;9.38;100.00
7026;BME280;3554;42.132;24.786;2023-02-04T11:34:42;98664.75;;;9.43;100.00
7026;BME280;3554;42.132;24.786;2023-02-04T11:37:16;98671.13;;;9.54;100.00
7026;BME280;3554;42.132;24.786;2023-02-04T11:39:46;98656.75;;;9.46;100.00
7026;BME280;3554;42.132;24.786;2023-02-04T11:42:18;98618.19;;;9.15;100.00
7026;BME280;3554;42.132;24.786;2023-02-04T11:44:52;98660.78;;;9.53;100.00
7026;BME280;3554;42.132;24.786;2023-02-04T11:47:22;98655.38;;;9.56;100.00
7026;BME280;3554;42.132;24.786;2023-02-04T11:49:54;98648.81;;;9.66;100.00
7026;BME280;3554;42.132;24.786;2023-02-04T11:52:21;98664.50;;;9.83;100.00
7026;BME280;3554;42.132;24.786;2023-02-04T11:54:57;98645.69;;;9.94;100.00
7026;BME280;3554;42.132;24.786;2023-02-04T11:57:25;98643.44;;;9.86;100.00
7026;BME280;3554;42.132;24.786;2023-02-04T11:59:52;98657.28;;;9.88;100.00
7026;BME280;3554;42.132;24.786;2023-02-04T12:02:21;98626.38;;;9.79;100.00
7026;BME280;3554;42.132;24.786;2023-02-04T12:04:53;98639.75;;;9.90;100.00
7026;BME280;3554;42.132;24.786;2023-02-04T12:07:23;98629.19;;;9.93;100.00
7026;BME280;3554;42.132;24.786;2023-02-04T12:09:50;98643.56;;;10.02;100.00
7026;BME280;3554;42.132;24.786;2023-02-04T12:12:24;98635.47;;;10.06;100.00
7026;BME280;3554;42.132;24.786;2023-02-04T12:15:02;98628.78;;;10.01;100.00
7026;BME280;3554;42.132;24.786;2023-02-04T12:17:29;98625.16;;;9.86;100.00
7026;BME280;3554;42.132;24.786;2023-02-04T12:19:56;98644.16;;;9.90;100.00
7026;BME280;3554;42.132;24.786;2023-02-04T12:22:23;98636.63;;;10.01;100.00
7026;BME280;3554;42.132;24.786;2023-02-04T12:24:49;98630.13;;;10.09;100.00
7026;BME280;3554;42.132;24.786;2023-02-04T12:27:17;98633.59;;;9.74;100.00
7026;BME280;3554;42.132;24.786;2023-02-04T12:29:46;98622.19;;;9.58;100.00
7026;BME280;3554;42.132;24.786;2023-02-04T12:32:12;98636.19;;;9.57;100.00
7026;BME280;3554;42.132;24.786;2023-02-04T12:34:39;98628.88;;;9.46;100.00
7026;BME280;3554;42.132;24.786;2023-02-04T12:37:06;98623.09;;;9.40;100.00
7026;BME280;3554;42.132;24.786;2023-02-04T12:39:33;98636.34;;;9.54;100.00
7026;BME280;3554;42.132;24.786;2023-02-04T12:41:59;98635.97;;;9.61;100.00
7026;BME280;3554;42.132;24.786;2023-02-04T12:44:28;98634.66;;;9.53;100.00
7026;BME280;3554;42.132;24.786;2023-02-04T12:46:57;98631.84;;;9.39;100.00
7026;BME280;3554;42.132;24.786;2023-02-04T12:49:23;98579.19;;;8.94;100.00
7026;BME280;3554;42.132;24.786;2023-02-04T12:51:50;98572.00;;;8.61;100.00
7026;BME280;3554;42.132;24.786;2023-02-04T12:54:17;98618.28;;;8.95;100.00
7026;BME280;3554;42.132;24.786;2023-02-04T12:56:44;98624.13;;;9.00;100.00
7026;BME280;3554;42.132;24.786;2023-02-04T12:59:10;98626.03;;;8.97;100.00
7026;BME280;3554;42.132;24.786;2023-02-04T13:01:37;98649.53;;;8.97;100.00
7026;BME280;3554;42.132;24.786;2023-02-04T13:04:05;98649.22;;;9.03;100.00
7026;BME280;3554;42.132;24.786;2023-02-04T13:06:32;98657.50;;;9.12;100.00
7026;BME280;3554;42.132;24.786;2023-02-04T13:08:59;98669.13;;;9.24;100.00
7026;BME280;3554;42.132;24.786;2023-02-04T13:11:26;98663.78;;;9.27;100.00
7026;BME280;3554;42.132;24.786;2023-02-04T13:13:52;98659.53;;;9.24;100.00